sensor_id;sensor_type;location;lat;lon;timestamp;pressure;altitude;pressure_sealevel;temperature;humidity
8575;BME280;4325;42.520;27.448;2022-08-19T00:01:23;100527.28;;;24.92;100.00
8575;BME280;4325;42.520;27.448;2022-08-19T00:03:50;100523.34;;;24.97;100.00
8575;BME280;4325;42.520;27.448;2022-08-19T00:06:17;100530.53;;;24.98;100.00
8575;BME280;4325;42.520;27.448;2022-08-19T00:08:44;100529.81;;;25.01;100.00
8575;BME280;4325;42.520;27.448;2022-08-19T00:11:11;100529.81;;;25.01;100.00
8575;BME280;4325;42.520;27.448;2022-08-19T00:13:38;100538.66;;;25.03;100.00
8575;BME280;4325;42.520;27.448;2022-08-19T00:16:06;100540.16;;;24.97;100.00
8575;BME280;4325;42.520;27.448;2022-08-19T00:18:34;100534.53;;;24.97;100.00
8575;BME280;4325;42.520;27.448;2022-08-19T00:21:01;100541.75;;;24.98;100.00
8575;BME280;4325;42.520;27.448;2022-08-19T00:23:28;100533.59;;;24.89;100.00
8575;BME280;4325;42.520;27.448;2022-08-19T00:25:55;100540.25;;;24.81;100.00
8575;BME280;4325;42.520;27.448;2022-08-19T00:28:22;100534.28;;;24.82;100.00
8575;BME280;4325;42.520;27.448;2022-08-19T00:30:49;100536.75;;;24.87;100.00
8575;BME280;4325;42.520;27.448;2022-08-19T00:33:19;100534.84;;;24.91;100.00
8575;BME280;4325;42.520;27.448;2022-08-19T00:35:46;100538.47;;;24.92;100.00
8575;BME280;4325;42.520;27.448;2022-08-19T00:38:13;100539.25;;;24.92;100.00
8575;BME280;4325;42.520;27.448;2022-08-19T00:40:43;100536.84;;;24.91;100.00
8575;BME280;4325;42.520;27.448;2022-08-19T00:43:13;100527.63;;;24.90;100.00
8575;BME280;4325;42.520;27.448;2022-08-19T00:45:44;100532.78;;;24.88;100.00
8575;BME280;4325;42.520;27.448;2022-08-19T00:48:11;100535.16;;;24.86;100.00
8575;BME280;4325;42.520;27.448;2022-08-19T00:50:40;100535.81;;;24.80;100.00
8575;BME280;4325;42.520;27.448;2022-08-19T00:53:09;100542.66;;;24.82;100.00
8575;BME280;4325;42.520;27.448;2022-08-19T00:55:37;100541.50;;;24.83;100.00
8575;BME280;4325;42.520;27.448;2022-08-19T00:58:08;100547.53;;;24.85;100.00
8575;BME280;4325;42.520;27.448;2022-08-19T01:00:36;100539.00;;;24.78;100.00
8575;BME280;4325;42.520;27.448;2022-08-19T01:03:05;100535.03;;;24.79;100.00
8575;BME280;4325;42.520;27.448;2022-08-19T01:05:32;100535.75;;;24.76;100.00
8575;BME280;4325;42.520;27.448;2022-08-19T01:08:02;100536.91;;;24.75;100.00
8575;BME280;4325;42.520;27.448;2022-08-19T01:10:33;100535.19;;;24.67;100.00
8575;BME280;4325;42.520;27.448;2022-08-19T01:13:02;100539.97;;;24.67;100.00
8575;BME280;4325;42.520;27.448;2022-08-19T01:15:33;100546.00;;;24.69;100.00
8575;BME280;4325;42.520;27.448;2022-08-19T01:18:04;100543.28;;;24.72;100.00
8575;BME280;4325;42.520;27.448;2022-08-19T01:20:32;100538.09;;;24.74;100.00
8575;BME280;4325;42.520;27.448;2022-08-19T01:23:01;100540.47;;;24.72;100.00
8575;BME280;4325;42.520;27.448;2022-08-19T01:25:31;100539.72;;;24.75;100.00
8575;BME280;4325;42.520;27.448;2022-08-19T01:27:58;100549.75;;;24.76;100.00
8575;BME280;4325;42.520;27.448;2022-08-19T01:30:27;100550.59;;;24.77;100.00
8575;BME280;4325;42.520;27.448;2022-08-19T01:32:56;100549.38;;;24.78;100.00
8575;BME280;4325;42.520;27.448;2022-08-19T01:35:27;100555.00;;;24.78;100.00
8575;BME280;4325;42.520;27.448;2022-08-19T01:37:57;100553.00;;;24.78;100.00
8575;BME280;4325;42.520;27.448;2022-08-19T01:40:29;100557.72;;;24.74;100.00
8575;BME280;4325;42.520;27.448;2022-08-19T01:42:57;100557.63;;;24.71;100.00
8575;BME280;4325;42.520;27.448;2022-08-19T01:45:26;100540.78;;;24.67;100.00
8575;BME280;4325;42.520;27.448;2022-08-19T01:47:54;100547.53;;;24.66;100.00
8575;BME280;4325;42.520;27.448;2022-08-19T01:50:21;100547.41;;;24.59;100.00
8575;BME280;4325;42.520;27.448;2022-08-19T01:52:48;100545.00;;;24.58;100.00
8575;BME280;4325;42.520;27.448;2022-08-19T01:55:18;100545.00;;;24.58;100.00
8575;BME280;4325;42.520;27.448;2022-08-19T01:57:52;100538.56;;;24.57;100.00
8575;BME280;4325;42.520;27.448;2022-08-19T02:00:23;100548.88;;;24.53;100.00
8575;BME280;4325;42.520;27.448;2022-08-19T02:02:51;100544.78;;;24.47;100.00
8575;BME280;4325;42.520;27.448;2022-08-19T02:05:18;100544.34;;;24.45;100.00
8575;BME280;4325;42.520;27.448;2022-08-19T02:07:47;100538.31;;;24.43;100.00
8575;BME280;4325;42.520;27.448;2022-08-19T02:10:18;100543.75;;;24.36;100.00
8575;BME280;4325;42.520;27.448;2022-08-19T02:12:48;100547.28;;;24.33;100.00
8575;BME280;4325;42.520;27.448;2022-08-19T02:15:15;100545.22;;;24.30;100.00
8575;BME280;4325;42.520;27.448;2022-08-19T02:17:44;100553.31;;;24.35;100.00
8575;BME280;4325;42.520;27.448;2022-08-19T02:20:11;100553.31;;;24.35;100.00
8575;BME280;4325;42.520;27.448;2022-08-19T02:22:39;100551.69;;;24.34;100.00
8575;BME280;4325;42.520;27.448;2022-08-19T02:25:07;100544.78;;;24.28;100.00
8575;BME280;4325;42.520;27.448;2022-08-19T02:27:34;100547.59;;;24.28;100.00
8575;BME280;4325;42.520;27.448;2022-08-19T02:30:03;100539.91;;;24.25;100.00
8575;BME280;4325;42.520;27.448;2022-08-19T02:32:31;100546.53;;;24.17;100.00
8575;BME280;4325;42.520;27.448;2022-08-19T02:34:58;100545.81;;;24.20;100.00
8575;BME280;4325;42.520;27.448;2022-08-19T02:37:25;100549.03;;;24.22;100.00
8575;BME280;4325;42.520;27.448;2022-08-19T02:40:10;100545.00;;;24.19;100.00
8575;BME280;4325;42.520;27.448;2022-08-19T02:42:38;100542.56;;;24.18;100.00
8575;BME280;4325;42.520;27.448;2022-08-19T02:45:07;100545.28;;;24.14;100.00
8575;BME280;4325;42.520;27.448;2022-08-19T02:47:34;100540.78;;;24.10;100.00
8575;BME280;4325;42.520;27.448;2022-08-19T02:50:02;100542.41;;;24.11;100.00
8575;BME280;4325;42.520;27.448;2022-08-19T02:52:31;100535.94;;;24.07;100.00
8575;BME280;4325;42.520;27.448;2022-08-19T02:54:58;100535.94;;;24.07;100.00
8575;BME280;4325;42.520;27.448;2022-08-19T02:57:26;100539.44;;;24.04;100.00
8575;BME280;4325;42.520;27.448;2022-08-19T02:59:53;100540.34;;;24.08;100.00
8575;BME280;4325;42.520;27.448;2022-08-19T03:02:22;100546.81;;;24.12;100.00
8575;BME280;4325;42.520;27.448;2022-08-19T03:04:49;100553.44;;;24.04;100.00
8575;BME280;4325;42.520;27.448;2022-08-19T03:07:16;100557.56;;;24.10;100.00
8575;BME280;4325;42.520;27.448;2022-08-19T03:09:44;100553.53;;;24.07;100.00
8575;BME280;4325;42.520;27.448;2022-08-19T03:12:11;100559.84;;;24.04;100.00
8575;BME280;4325;42.520;27.448;2022-08-19T03:17:24;100555.03;;;24.05;100.00
8575;BME280;4325;42.520;27.448;2022-08-19T03:19:51;100552.72;;;24.07;100.00
8575;BME280;4325;42.520;27.448;2022-08-19T03:22:19;100565.16;;;24.09;100.00
8575;BME280;4325;42.520;27.448;2022-08-19T03:24:46;100557.56;;;24.10;100.00
8575;BME280;4325;42.520;27.448;2022-08-19T03:27:12;100560.03;;;24.11;100.00
8575;BME280;4325;42.520;27.448;2022-08-19T03:29:39;100556.84;;;24.13;100.00
8575;BME280;4325;42.520;27.448;2022-08-19T03:32:06;100558.47;;;24.14;100.00
8575;BME280;4325;42.520;27.448;2022-08-19T03:34:36;100566.41;;;24.12;100.00
8575;BME280;4325;42.520;27.448;2022-08-19T03:37:06;100566.41;;;24.12;100.00
8575;BME280;4325;42.520;27.448;2022-08-19T03:39:35;100566.22;;;24.05;100.00
8575;BME280;4325;42.520;27.448;2022-08-19T03:42:03;100575.09;;;24.07;100.00
8575;BME280;4325;42.520;27.448;2022-08-19T03:44:31;100569.56;;;24.10;100.00
8575;BME280;4325;42.520;27.448;2022-08-19T03:46:59;100573.63;;;24.13;100.00
8575;BME280;4325;42.520;27.448;2022-08-19T03:49:29;100582.47;;;24.15;100.00
8575;BME280;4325;42.520;27.448;2022-08-19T03:51:58;100581.00;;;24.21;100.00
8575;BME280;4325;42.520;27.448;2022-08-19T03:54:27;100590.72;;;24.27;100.00
8575;BME280;4325;42.520;27.448;2022-08-19T03:56:55;100582.94;;;24.36;100.00
8575;BME280;4325;42.520;27.448;2022-08-19T03:59:24;100586.63;;;24.40;100.00
8575;BME280;4325;42.520;27.448;2022-08-19T04:01:52;100589.47;;;24.44;100.00
8575;BME280;4325;42.520;27.448;2022-08-19T04:04:19;100592.78;;;24.49;100.00
8575;BME280;4325;42.520;27.448;2022-08-19T04:06:47;100592.94;;;24.56;100.00
8575;BME280;4325;42.520;27.448;2022-08-19T04:09:15;100594.19;;;24.59;100.00
8575;BME280;4325;42.520;27.448;2022-08-19T04:11:44;100600.31;;;24.64;100.00
8575;BME280;4325;42.520;27.448;2022-08-19T04:14:14;100603.53;;;24.66;100.00
8575;BME280;4325;42.520;27.448;2022-08-19T04:16:42;100604.88;;;24.72;100.00
8575;BME280;4325;42.520;27.448;2022-08-19T04:19:11;100608.53;;;24.76;100.00
8575;BME280;4325;42.520;27.448;2022-08-19T04:21:38;100599.06;;;24.81;100.00
8575;BME280;4325;42.520;27.448;2022-08-19T04:24:05;100596.78;;;24.86;100.00
8575;BME280;4325;42.520;27.448;2022-08-19T04:26:35;100611.66;;;24.90;100.00
8575;BME280;4325;42.520;27.448;2022-08-19T04:29:06;100613.41;;;24.99;100.00
8575;BME280;4325;42.520;27.448;2022-08-19T04:31:33;100617.81;;;25.00;100.00
8575;BME280;4325;42.520;27.448;2022-08-19T04:34:02;100616.22;;;24.99;100.00
8575;BME280;4325;42.520;27.448;2022-08-19T04:36:32;100619.53;;;25.04;100.00
8575;BME280;4325;42.520;27.448;2022-08-19T04:39:02;100615.59;;;25.09;100.00
8575;BME280;4325;42.520;27.448;2022-08-19T04:41:30;100617.66;;;25.12;100.00
8575;BME280;4325;42.520;27.448;2022-08-19T04:44:25;100604.00;;;25.10;100.00
8575;BME280;4325;42.520;27.448;2022-08-19T04:46:52;100607.03;;;25.21;100.00
8575;BME280;4325;42.520;27.448;2022-08-19T04:49:22;100611.19;;;25.30;100.00
8575;BME280;4325;42.520;27.448;2022-08-19T04:51:50;100614.50;;;25.36;100.00
8575;BME280;4325;42.520;27.448;2022-08-19T04:54:18;100615.50;;;25.47;100.00
8575;BME280;4325;42.520;27.448;2022-08-19T04:56:48;100618.13;;;25.59;100.00
8575;BME280;4325;42.520;27.448;2022-08-19T04:59:16;100614.38;;;25.74;99.37
8575;BME280;4325;42.520;27.448;2022-08-19T05:01:46;100615.22;;;25.78;98.31
8575;BME280;4325;42.520;27.448;2022-08-19T05:04:15;100617.78;;;25.87;97.98
8575;BME280;4325;42.520;27.448;2022-08-19T05:06:42;100618.72;;;25.98;96.48
8575;BME280;4325;42.520;27.448;2022-08-19T05:09:09;100615.59;;;26.03;96.33
8575;BME280;4325;42.520;27.448;2022-08-19T05:11:37;100623.63;;;26.04;96.36
8575;BME280;4325;42.520;27.448;2022-08-19T05:14:05;100625.69;;;26.07;96.84
8575;BME280;4325;42.520;27.448;2022-08-19T05:16:32;100617.16;;;26.00;96.75
8575;BME280;4325;42.520;27.448;2022-08-19T05:19:00;100614.16;;;25.86;98.11
8575;BME280;4325;42.520;27.448;2022-08-19T05:21:44;100620.19;;;25.88;98.93
8575;BME280;4325;42.520;27.448;2022-08-19T05:24:29;100625.81;;;25.88;100.00
8575;BME280;4325;42.520;27.448;2022-08-19T05:26:58;100625.00;;;25.88;100.00
8575;BME280;4325;42.520;27.448;2022-08-19T05:29:27;100632.91;;;25.82;100.00
8575;BME280;4325;42.520;27.448;2022-08-19T05:31:54;100629.75;;;25.84;100.00
8575;BME280;4325;42.520;27.448;2022-08-19T05:34:24;100639.22;;;25.76;100.00
8575;BME280;4325;42.520;27.448;2022-08-19T05:36:52;100627.69;;;25.81;100.00
8575;BME280;4325;42.520;27.448;2022-08-19T05:39:21;100626.72;;;25.96;100.00
8575;BME280;4325;42.520;27.448;2022-08-19T05:41:50;100632.63;;;26.13;100.00
8575;BME280;4325;42.520;27.448;2022-08-19T05:44:18;100634.41;;;26.25;100.00
8575;BME280;4325;42.520;27.448;2022-08-19T05:46:47;100640.72;;;26.48;98.08
8575;BME280;4325;42.520;27.448;2022-08-19T05:49:15;100638.97;;;26.70;97.23
8575;BME280;4325;42.520;27.448;2022-08-19T05:51:44;100640.88;;;26.89;96.79
8575;BME280;4325;42.520;27.448;2022-08-19T05:54:11;100645.94;;;27.13;93.81
8575;BME280;4325;42.520;27.448;2022-08-19T05:56:39;100638.47;;;27.27;91.65
8575;BME280;4325;42.520;27.448;2022-08-19T05:59:08;100636.59;;;27.38;91.95
8575;BME280;4325;42.520;27.448;2022-08-19T06:01:37;100635.88;;;27.48;91.74
8575;BME280;4325;42.520;27.448;2022-08-19T06:04:04;100636.00;;;27.63;90.72
8575;BME280;4325;42.520;27.448;2022-08-19T06:06:32;100637.78;;;27.81;90.04
8575;BME280;4325;42.520;27.448;2022-08-19T06:09:02;100626.63;;;27.99;89.04
8575;BME280;4325;42.520;27.448;2022-08-19T06:11:33;100629.16;;;28.11;86.95
8575;BME280;4325;42.520;27.448;2022-08-19T06:14:03;100624.38;;;28.15;87.24
8575;BME280;4325;42.520;27.448;2022-08-19T06:16:30;100622.78;;;28.21;87.14
8575;BME280;4325;42.520;27.448;2022-08-19T06:19:02;100612.41;;;28.36;86.58
8575;BME280;4325;42.520;27.448;2022-08-19T06:21:32;100612.50;;;28.57;84.66
8575;BME280;4325;42.520;27.448;2022-08-19T06:24:02;100615.03;;;28.79;80.81
8575;BME280;4325;42.520;27.448;2022-08-19T06:26:29;100622.34;;;29.02;79.36
8575;BME280;4325;42.520;27.448;2022-08-19T06:28:57;100615.13;;;29.15;76.72
8575;BME280;4325;42.520;27.448;2022-08-19T06:31:26;100614.78;;;29.34;75.78
8575;BME280;4325;42.520;27.448;2022-08-19T06:33:53;100616.78;;;29.55;74.79
8575;BME280;4325;42.520;27.448;2022-08-19T06:36:22;100615.19;;;29.71;74.73
8575;BME280;4325;42.520;27.448;2022-08-19T06:38:52;100620.06;;;29.88;72.32
8575;BME280;4325;42.520;27.448;2022-08-19T06:41:21;100625.28;;;30.00;71.29
8575;BME280;4325;42.520;27.448;2022-08-19T06:43:47;100629.25;;;30.14;69.77
8575;BME280;4325;42.520;27.448;2022-08-19T06:46:16;100623.16;;;30.33;69.36
8575;BME280;4325;42.520;27.448;2022-08-19T06:48:44;100624.75;;;30.51;67.98
8575;BME280;4325;42.520;27.448;2022-08-19T06:51:11;100624.69;;;30.65;68.30
8575;BME280;4325;42.520;27.448;2022-08-19T06:53:40;100626.25;;;30.77;65.16
8575;BME280;4325;42.520;27.448;2022-08-19T06:56:13;100620.56;;;30.84;65.63
8575;BME280;4325;42.520;27.448;2022-08-19T06:58:42;100625.00;;;30.92;65.22
8575;BME280;4325;42.520;27.448;2022-08-19T07:01:09;100624.53;;;31.01;62.82
8575;BME280;4325;42.520;27.448;2022-08-19T07:03:37;100628.94;;;31.09;63.97
8575;BME280;4325;42.520;27.448;2022-08-19T07:06:06;100627.69;;;31.17;64.38
8575;BME280;4325;42.520;27.448;2022-08-19T07:08:35;100623.97;;;31.27;64.19
8575;BME280;4325;42.520;27.448;2022-08-19T07:11:05;100624.75;;;31.34;64.14
8575;BME280;4325;42.520;27.448;2022-08-19T07:13:33;100625.88;;;31.41;64.08
8575;BME280;4325;42.520;27.448;2022-08-19T07:16:05;100620.25;;;31.44;63.64
8575;BME280;4325;42.520;27.448;2022-08-19T07:18:32;100631.47;;;31.55;62.03
8575;BME280;4325;42.520;27.448;2022-08-19T07:21:06;100623.84;;;31.52;60.91
8575;BME280;4325;42.520;27.448;2022-08-19T07:23:33;100616.56;;;31.51;60.54
8575;BME280;4325;42.520;27.448;2022-08-19T07:26:05;100609.19;;;31.57;59.61
8575;BME280;4325;42.520;27.448;2022-08-19T07:28:32;100614.34;;;31.69;60.52
8575;BME280;4325;42.520;27.448;2022-08-19T07:31:00;100615.09;;;31.80;60.58
8575;BME280;4325;42.520;27.448;2022-08-19T07:33:30;100616.56;;;31.91;59.61
8575;BME280;4325;42.520;27.448;2022-08-19T07:35:58;100587.97;;;31.82;60.32
8575;BME280;4325;42.520;27.448;2022-08-19T07:38:25;100593.09;;;31.94;59.09
8575;BME280;4325;42.520;27.448;2022-08-19T07:40:52;100617.53;;;32.19;55.28
8575;BME280;4325;42.520;27.448;2022-08-19T07:43:19;100612.63;;;32.23;56.91
8575;BME280;4325;42.520;27.448;2022-08-19T07:45:50;100602.50;;;32.25;56.39
8575;BME280;4325;42.520;27.448;2022-08-19T07:48:17;100605.13;;;32.43;55.83
8575;BME280;4325;42.520;27.448;2022-08-19T07:50:45;100602.56;;;32.55;53.00
8575;BME280;4325;42.520;27.448;2022-08-19T07:53:13;100600.38;;;32.67;53.05
8575;BME280;4325;42.520;27.448;2022-08-19T07:55:40;100600.97;;;32.85;55.08
8575;BME280;4325;42.520;27.448;2022-08-19T07:58:08;100598.88;;;33.19;49.83
8575;BME280;4325;42.520;27.448;2022-08-19T08:00:35;100592.50;;;33.61;48.23
8575;BME280;4325;42.520;27.448;2022-08-19T08:03:02;100594.78;;;34.16;47.71
8575;BME280;4325;42.520;27.448;2022-08-19T08:05:29;100587.75;;;34.99;45.13
8575;BME280;4325;42.520;27.448;2022-08-19T08:08:15;100585.50;;;36.20;40.26
8575;BME280;4325;42.520;27.448;2022-08-19T08:10:59;100581.06;;;37.52;38.08
8575;BME280;4325;42.520;27.448;2022-08-19T08:13:27;100593.47;;;38.82;35.47
8575;BME280;4325;42.520;27.448;2022-08-19T08:15:54;100581.81;;;40.23;32.49
8575;BME280;4325;42.520;27.448;2022-08-19T08:18:21;100587.88;;;41.78;30.86
8575;BME280;4325;42.520;27.448;2022-08-19T08:20:47;100592.53;;;42.82;27.68
8575;BME280;4325;42.520;27.448;2022-08-19T08:23:16;100589.22;;;43.32;28.21
8575;BME280;4325;42.520;27.448;2022-08-19T08:25:50;100585.78;;;44.75;26.07
8575;BME280;4325;42.520;27.448;2022-08-19T08:28:18;100593.81;;;46.07;24.61
8575;BME280;4325;42.520;27.448;2022-08-19T08:30:45;100579.78;;;47.15;22.83
8575;BME280;4325;42.520;27.448;2022-08-19T08:33:13;100579.72;;;48.22;21.84
8575;BME280;4325;42.520;27.448;2022-08-19T08:35:41;100575.56;;;49.23;20.63
8575;BME280;4325;42.520;27.448;2022-08-19T08:38:08;100577.31;;;50.17;19.96
8575;BME280;4325;42.520;27.448;2022-08-19T08:40:43;100584.25;;;51.02;19.08
8575;BME280;4325;42.520;27.448;2022-08-19T08:43:24;100586.97;;;50.81;19.11
8575;BME280;4325;42.520;27.448;2022-08-19T08:45:59;100573.72;;;50.30;19.08
8575;BME280;4325;42.520;27.448;2022-08-19T08:48:34;100576.88;;;50.13;19.31
8575;BME280;4325;42.520;27.448;2022-08-19T08:51:05;100569.56;;;50.76;18.87
8575;BME280;4325;42.520;27.448;2022-08-19T08:53:34;100582.44;;;50.67;18.87
8575;BME280;4325;42.520;27.448;2022-08-19T08:56:06;100582.13;;;50.71;18.94
8575;BME280;4325;42.520;27.448;2022-08-19T08:58:45;100574.09;;;51.48;17.97
8575;BME280;4325;42.520;27.448;2022-08-19T09:01:14;100575.91;;;52.03;17.15
8575;BME280;4325;42.520;27.448;2022-08-19T09:03:42;100580.28;;;52.23;16.86
8575;BME280;4325;42.520;27.448;2022-08-19T09:06:14;100582.56;;;53.13;16.48
8575;BME280;4325;42.520;27.448;2022-08-19T09:08:49;100585.34;;;54.11;16.28
8575;BME280;4325;42.520;27.448;2022-08-19T09:11:37;100577.50;;;54.49;14.87
8575;BME280;4325;42.520;27.448;2022-08-19T09:14:15;100572.50;;;53.21;15.99
8575;BME280;4325;42.520;27.448;2022-08-19T09:16:47;100571.41;;;53.32;16.36
8575;BME280;4325;42.520;27.448;2022-08-19T09:19:15;100567.22;;;53.48;15.16
8575;BME280;4325;42.520;27.448;2022-08-19T09:21:43;100568.41;;;54.17;15.30
8575;BME280;4325;42.520;27.448;2022-08-19T09:24:10;100578.59;;;54.31;15.70
8575;BME280;4325;42.520;27.448;2022-08-19T09:26:39;100572.81;;;54.53;15.12
8575;BME280;4325;42.520;27.448;2022-08-19T09:29:06;100569.94;;;55.22;14.53
8575;BME280;4325;42.520;27.448;2022-08-19T09:31:33;100574.84;;;54.81;14.64
8575;BME280;4325;42.520;27.448;2022-08-19T09:34:00;100569.25;;;53.97;15.22
8575;BME280;4325;42.520;27.448;2022-08-19T09:36:30;100569.84;;;53.95;15.55
8575;BME280;4325;42.520;27.448;2022-08-19T09:38:59;100575.94;;;54.55;14.42
8575;BME280;4325;42.520;27.448;2022-08-19T09:41:26;100568.19;;;54.81;14.98
8575;BME280;4325;42.520;27.448;2022-08-19T09:43:56;100561.41;;;54.35;14.76
8575;BME280;4325;42.520;27.448;2022-08-19T09:46:25;100552.38;;;54.18;15.09
8575;BME280;4325;42.520;27.448;2022-08-19T09:48:53;100564.81;;;54.69;14.85
8575;BME280;4325;42.520;27.448;2022-08-19T09:51:22;100553.88;;;54.85;14.77
8575;BME280;4325;42.520;27.448;2022-08-19T09:53:52;100561.28;;;54.05;15.15
8575;BME280;4325;42.520;27.448;2022-08-19T09:56:21;100553.63;;;53.30;16.08
8575;BME280;4325;42.520;27.448;2022-08-19T09:58:48;100546.56;;;53.89;16.77
8575;BME280;4325;42.520;27.448;2022-08-19T10:01:18;100553.47;;;54.73;15.34
8575;BME280;4325;42.520;27.448;2022-08-19T10:03:48;100552.00;;;54.29;14.66
8575;BME280;4325;42.520;27.448;2022-08-19T10:06:17;100552.09;;;53.57;15.66
8575;BME280;4325;42.520;27.448;2022-08-19T10:08:45;100551.09;;;52.64;16.14
8575;BME280;4325;42.520;27.448;2022-08-19T10:11:12;100555.53;;;51.19;17.28
8575;BME280;4325;42.520;27.448;2022-08-19T10:13:42;100554.59;;;48.30;19.90
8575;BME280;4325;42.520;27.448;2022-08-19T10:16:11;100545.66;;;46.15;22.18
8575;BME280;4325;42.520;27.448;2022-08-19T10:18:40;100555.81;;;44.21;23.97
8575;BME280;4325;42.520;27.448;2022-08-19T10:21:09;100555.88;;;42.82;27.29
8575;BME280;4325;42.520;27.448;2022-08-19T10:23:38;100549.00;;;41.83;28.20
8575;BME280;4325;42.520;27.448;2022-08-19T10:26:06;100556.25;;;41.45;29.75
8575;BME280;4325;42.520;27.448;2022-08-19T10:28:34;100555.91;;;40.78;29.84
8575;BME280;4325;42.520;27.448;2022-08-19T10:31:06;100556.28;;;40.44;31.03
8575;BME280;4325;42.520;27.448;2022-08-19T10:33:34;100559.97;;;40.17;30.04
8575;BME280;4325;42.520;27.448;2022-08-19T10:36:05;100543.38;;;39.85;31.42
8575;BME280;4325;42.520;27.448;2022-08-19T10:38:32;100546.84;;;39.52;30.56
8575;BME280;4325;42.520;27.448;2022-08-19T10:41:06;100538.88;;;39.08;30.80
8575;BME280;4325;42.520;27.448;2022-08-19T10:43:33;100543.56;;;39.81;32.50
8575;BME280;4325;42.520;27.448;2022-08-19T10:46:04;100550.22;;;40.51;29.42
8575;BME280;4325;42.520;27.448;2022-08-19T10:48:31;100543.69;;;42.05;28.34
8575;BME280;4325;42.520;27.448;2022-08-19T10:50:58;100546.25;;;43.00;25.94
8575;BME280;4325;42.520;27.448;2022-08-19T10:53:44;100545.66;;;43.65;25.43
8575;BME280;4325;42.520;27.448;2022-08-19T10:56:11;100555.28;;;44.23;26.91
8575;BME280;4325;42.520;27.448;2022-08-19T10:58:55;100556.34;;;45.02;24.88
8575;BME280;4325;42.520;27.448;2022-08-19T11:01:23;100559.41;;;44.62;24.54
8575;BME280;4325;42.520;27.448;2022-08-19T11:03:50;100548.66;;;44.37;25.96
8575;BME280;4325;42.520;27.448;2022-08-19T11:06:18;100551.81;;;43.38;26.97
8575;BME280;4325;42.520;27.448;2022-08-19T11:08:47;100548.66;;;42.57;28.02
8575;BME280;4325;42.520;27.448;2022-08-19T11:11:14;100549.28;;;42.23;28.25
8575;BME280;4325;42.520;27.448;2022-08-19T11:13:41;100550.00;;;42.47;28.59
8575;BME280;4325;42.520;27.448;2022-08-19T11:16:11;100552.91;;;42.77;28.70
8575;BME280;4325;42.520;27.448;2022-08-19T11:18:41;100556.16;;;42.40;29.39
8575;BME280;4325;42.520;27.448;2022-08-19T11:21:11;100554.75;;;41.59;29.91
8575;BME280;4325;42.520;27.448;2022-08-19T11:23:39;100550.94;;;40.88;30.81
8575;BME280;4325;42.520;27.448;2022-08-19T11:26:07;100559.03;;;41.40;30.08
8575;BME280;4325;42.520;27.448;2022-08-19T11:28:34;100557.22;;;42.66;28.67
8575;BME280;4325;42.520;27.448;2022-08-19T11:31:01;100549.13;;;43.69;27.80
8575;BME280;4325;42.520;27.448;2022-08-19T11:33:29;100555.34;;;44.48;26.81
8575;BME280;4325;42.520;27.448;2022-08-19T11:35:57;100554.31;;;45.14;26.55
8575;BME280;4325;42.520;27.448;2022-08-19T11:38:25;100545.13;;;45.15;25.69
8575;BME280;4325;42.520;27.448;2022-08-19T11:40:56;100549.81;;;45.50;25.16
8575;BME280;4325;42.520;27.448;2022-08-19T11:43:25;100547.00;;;46.25;24.40
8575;BME280;4325;42.520;27.448;2022-08-19T11:45:53;100546.03;;;46.67;23.72
8575;BME280;4325;42.520;27.448;2022-08-19T11:48:20;100538.38;;;47.20;23.08
8575;BME280;4325;42.520;27.448;2022-08-19T11:50:48;100545.59;;;47.82;22.10
8575;BME280;4325;42.520;27.448;2022-08-19T11:53:15;100534.94;;;48.42;21.94
8575;BME280;4325;42.520;27.448;2022-08-19T11:55:44;100541.03;;;46.79;22.47
8575;BME280;4325;42.520;27.448;2022-08-19T11:58:11;100535.16;;;46.23;23.39
8575;BME280;4325;42.520;27.448;2022-08-19T12:00:40;100534.09;;;46.32;23.51
8575;BME280;4325;42.520;27.448;2022-08-19T12:03:08;100529.44;;;46.68;22.83
8575;BME280;4325;42.520;27.448;2022-08-19T12:05:37;100536.81;;;47.02;22.53
8575;BME280;4325;42.520;27.448;2022-08-19T12:08:04;100533.56;;;47.55;22.47
8575;BME280;4325;42.520;27.448;2022-08-19T12:10:31;100529.59;;;47.42;21.99
8575;BME280;4325;42.520;27.448;2022-08-19T12:12:58;100525.56;;;48.24;21.75
8575;BME280;4325;42.520;27.448;2022-08-19T12:15:25;100527.53;;;48.81;21.02
8575;BME280;4325;42.520;27.448;2022-08-19T12:17:54;100526.03;;;49.29;20.56
8575;BME280;4325;42.520;27.448;2022-08-19T12:20:22;100526.53;;;49.76;19.96
8575;BME280;4325;42.520;27.448;2022-08-19T12:22:50;100525.19;;;49.77;19.08
8575;BME280;4325;42.520;27.448;2022-08-19T12:25:17;100523.84;;;49.35;19.30
8575;BME280;4325;42.520;27.448;2022-08-19T12:27:44;100519.81;;;49.14;19.95
8575;BME280;4325;42.520;27.448;2022-08-19T12:30:13;100515.56;;;49.63;19.58
8575;BME280;4325;42.520;27.448;2022-08-19T12:32:39;100518.88;;;49.54;19.74
8575;BME280;4325;42.520;27.448;2022-08-19T12:35:08;100510.44;;;48.37;20.37
8575;BME280;4325;42.520;27.448;2022-08-19T12:37:37;100499.13;;;46.69;21.44
8575;BME280;4325;42.520;27.448;2022-08-19T12:40:05;100504.31;;;45.39;22.70
8575;BME280;4325;42.520;27.448;2022-08-19T12:42:32;100504.78;;;44.64;23.23
8575;BME280;4325;42.520;27.448;2022-08-19T12:45:00;100502.41;;;43.85;24.81
8575;BME280;4325;42.520;27.448;2022-08-19T12:47:27;100506.81;;;44.07;24.21
8575;BME280;4325;42.520;27.448;2022-08-19T12:49:53;100510.56;;;44.64;23.71
8575;BME280;4325;42.520;27.448;2022-08-19T12:52:24;100507.03;;;43.77;24.11
8575;BME280;4325;42.520;27.448;2022-08-19T12:54:53;100505.53;;;43.27;24.85
8575;BME280;4325;42.520;27.448;2022-08-19T12:57:21;100509.88;;;43.02;25.27
8575;BME280;4325;42.520;27.448;2022-08-19T12:59:51;100504.34;;;43.19;25.34
8575;BME280;4325;42.520;27.448;2022-08-19T13:02:19;100504.47;;;44.05;24.83
8575;BME280;4325;42.520;27.448;2022-08-19T13:04:46;100506.59;;;44.87;23.81
8575;BME280;4325;42.520;27.448;2022-08-19T13:07:13;100510.88;;;44.72;23.68